Time;durP1;ratioP1;P1;durP2;ratioP2;P2;SDS_P1;SDS_P2;PMS_P1;PMS_P2;Temp;Humidity;BMP_temperature;BMP_pressure;BME280_temperature;BME280_humidity;BME280_pressure;Samples;Min_cycle;Max_cycle;Signal;HPM_P1;HPM_P2
2022/05/10 00:01:50;;;;;;;9.18;5.10;;;15.60;99.00;;;;;;5081067;28;20036;-61
2022/05/10 00:04:15;;;;;;;10.77;4.50;;;15.60;99.00;;;;;;5081256;28;20044;-61
2022/05/10 00:06:45;;;;;;;10.70;4.60;;;15.50;99.10;;;;;;5084171;28;20040;-61
2022/05/10 00:09:11;;;;;;;14.52;4.85;;;15.40;99.70;;;;;;5084180;28;20044;-61
2022/05/10 00:11:38;;;;;;;11.48;4.30;;;15.40;99.90;;;;;;5076404;28;20036;-63
2022/05/10 00:14:05;;;;;;;11.98;5.13;;;15.40;99.90;;;;;;5084465;28;20405;-61
2022/05/10 00:16:33;;;;;;;10.18;4.13;;;15.40;99.90;;;;;;5079223;28;20147;-60
2022/05/10 00:18:59;;;;;;;8.45;4.70;;;15.30;99.40;;;;;;5081553;28;20044;-61
2022/05/10 00:21:25;;;;;;;10.07;4.20;;;15.40;99.60;;;;;;5080174;28;20066;-61
2022/05/10 00:23:51;;;;;;;12.95;5.03;;;15.40;99.60;;;;;;5076827;28;20047;-61
2022/05/10 00:26:17;;;;;;;11.40;4.95;;;15.30;99.80;;;;;;5084733;28;20036;-61
2022/05/10 00:28:42;;;;;;;9.43;4.80;;;15.30;99.70;;;;;;5080175;28;20044;-62
2022/05/10 00:31:09;;;;;;;12.02;4.63;;;15.30;99.90;;;;;;5081010;28;20068;-61
2022/05/10 00:33:36;;;;;;;10.20;4.97;;;15.30;99.90;;;;;;5073896;28;20046;-61
2022/05/10 00:36:02;;;;;;;10.75;5.20;;;15.20;99.90;;;;;;5075533;28;20045;-62
2022/05/10 00:38:33;;;;;;;9.75;4.82;;;15.20;99.90;;;;;;5080484;28;20048;-61
2022/05/10 00:41:23;;;;;;;13.48;5.20;;;15.20;99.90;;;;;;5075852;28;20036;-61
2022/05/10 00:43:53;;;;;;;14.00;5.53;;;15.10;99.90;;;;;;5084428;28;20052;-62
2022/05/10 00:46:31;;;;;;;10.20;5.10;;;15.10;99.90;;;;;;5083587;28;20092;-61
2022/05/10 00:49:26;;;;;;;11.52;5.68;;;15.10;99.90;;;;;;5080433;28;20039;-61
2022/05/10 00:52:00;;;;;;;10.00;5.13;;;15.10;99.90;;;;;;5089266;28;20151;-62
2022/05/10 00:54:29;;;;;;;12.40;5.57;;;15.00;99.90;;;;;;5084283;28;20052;-62
2022/05/10 00:57:10;;;;;;;11.55;5.95;;;15.00;99.90;;;;;;5088507;28;20135;-62
2022/05/10 01:00:02;;;;;;;9.80;5.80;;;15.00;99.90;;;;;;5082125;28;20120;-61
2022/05/10 01:02:39;;;;;;;12.50;5.80;;;14.90;99.90;;;;;;5080091;28;20040;-62
2022/05/10 01:05:16;;;;;;;15.48;6.82;;;14.90;99.90;;;;;;5086856;28;20062;-61
2022/05/10 01:08:03;;;;;;;13.82;6.47;;;14.90;99.90;;;;;;5085331;28;21776;-61
2022/05/10 01:10:44;;;;;;;9.82;5.18;;;14.90;99.90;;;;;;5082881;28;20047;-61
2022/05/10 01:13:19;;;;;;;13.70;6.28;;;14.80;99.90;;;;;;5085834;28;20051;-60
2022/05/10 01:15:56;;;;;;;12.00;5.82;;;14.80;99.90;;;;;;5081153;28;20382;-61
2022/05/10 01:18:23;;;;;;;11.05;6.45;;;14.80;99.90;;;;;;5088921;28;20048;-61
2022/05/10 01:20:54;;;;;;;17.17;6.75;;;14.80;99.90;;;;;;5078701;28;20064;-62
2022/05/10 01:23:44;;;;;;;12.30;6.03;;;14.80;99.90;;;;;;5085391;28;20041;-61
2022/05/10 01:26:23;;;;;;;14.45;6.07;;;14.70;99.90;;;;;;5081129;28;20178;-62
2022/05/10 01:28:56;;;;;;;10.13;5.80;;;14.70;99.90;;;;;;5085868;28;20044;-61
2022/05/10 01:31:34;;;;;;;9.68;5.90;;;14.70;99.90;;;;;;5085291;28;20044;-60
2022/05/10 01:34:08;;;;;;;12.02;6.80;;;14.60;99.90;;;;;;5082574;28;20366;-60
2022/05/10 01:36:43;;;;;;;12.00;6.10;;;14.60;99.90;;;;;;5084786;28;20067;-60
2022/05/10 01:39:30;;;;;;;11.40;6.55;;;14.60;99.90;;;;;;5082294;28;20044;-60
2022/05/10 01:42:15;;;;;;;14.65;6.30;;;14.60;99.90;;;;;;5087521;28;20506;-60
2022/05/10 01:44:43;;;;;;;10.23;6.15;;;14.60;99.90;;;;;;5087282;28;20147;-60
2022/05/10 01:47:29;;;;;;;10.90;5.90;;;14.50;99.90;;;;;;5086649;28;20542;-60
2022/05/10 01:49:59;;;;;;;11.52;6.20;;;14.50;99.90;;;;;;5086608;28;20086;-63
2022/05/10 01:52:34;;;;;;;12.85;6.20;;;14.50;99.90;;;;;;5085284;28;20063;-62
2022/05/10 01:55:09;;;;;;;11.27;5.97;;;14.50;99.90;;;;;;5082211;28;20040;-62
2022/05/10 01:57:38;;;;;;;11.95;6.15;;;14.50;99.90;;;;;;5080692;28;20106;-60
2022/05/10 02:00:12;;;;;;;14.90;6.68;;;14.40;99.90;;;;;;5078329;28;20048;-62
2022/05/10 02:02:44;;;;;;;12.38;7.05;;;14.40;99.90;;;;;;5083085;28;20751;-61
2022/05/10 02:05:14;;;;;;;10.93;6.60;;;14.40;99.90;;;;;;5074729;28;20055;-61
2022/05/10 02:07:43;;;;;;;10.57;6.13;;;14.40;99.90;;;;;;5082785;28;20354;-61
2022/05/10 02:10:17;;;;;;;11.13;6.93;;;14.30;99.90;;;;;;5082669;28;20047;-61
2022/05/10 02:12:55;;;;;;;13.63;6.25;;;14.30;99.90;;;;;;5086132;28;20042;-61
2022/05/10 02:15:24;;;;;;;11.60;6.57;;;14.30;99.90;;;;;;5078314;28;20043;-61
2022/05/10 02:18:01;;;;;;;11.48;6.40;;;14.30;99.90;;;;;;5086589;28;20040;-61
2022/05/10 02:20:54;;;;;;;13.23;6.45;;;14.30;99.90;;;;;;5082584;28;20048;-61
2022/05/10 02:23:28;;;;;;;11.65;6.25;;;14.30;99.90;;;;;;5079934;28;20105;-61
2022/05/10 02:26:02;;;;;;;14.18;6.07;;;14.40;99.90;;;;;;5080379;28;20050;-61
2022/05/10 02:28:43;;;;;;;9.95;6.63;;;14.40;99.90;;;;;;5081568;28;20048;-61
2022/05/10 02:31:21;;;;;;;13.23;7.20;;;14.30;99.90;;;;;;5096534;28;20059;-65
2022/05/10 02:33:49;;;;;;;10.70;6.55;;;14.40;99.90;;;;;;5082330;28;20623;-61
2022/05/10 02:36:15;;;;;;;10.43;6.25;;;14.30;99.90;;;;;;5076496;28;20032;-60
2022/05/10 02:38:42;;;;;;;13.15;6.70;;;14.30;99.90;;;;;;5085863;28;20044;-61
2022/05/10 02:41:13;;;;;;;10.88;6.60;;;14.30;99.90;;;;;;5082505;28;20040;-62
2022/05/10 02:43:53;;;;;;;11.43;6.70;;;14.30;99.90;;;;;;5086960;28;20393;-61
2022/05/10 02:46:19;;;;;;;16.30;7.60;;;14.40;99.90;;;;;;5079733;28;20048;-61
2022/05/10 02:48:47;;;;;;;13.35;7.25;;;14.30;99.90;;;;;;5081330;28;20490;-61
2022/05/10 02:51:13;;;;;;;14.00;7.25;;;14.30;99.90;;;;;;5081562;28;20032;-60
2022/05/10 02:53:39;;;;;;;11.88;7.22;;;14.30;99.90;;;;;;5083564;28;20343;-60
2022/05/10 02:56:08;;;;;;;14.63;8.15;;;14.30;99.90;;;;;;5084003;28;20039;-61
2022/05/10 02:58:48;;;;;;;13.82;7.38;;;14.30;99.90;;;;;;5084176;28;20091;-61
2022/05/10 03:01:49;;;;;;;12.73;7.78;;;14.40;99.90;;;;;;5084419;28;20066;-61
2022/05/10 03:04:14;;;;;;;18.05;8.02;;;14.40;99.90;;;;;;5084479;28;20052;-60
2022/05/10 03:06:43;;;;;;;12.80;7.88;;;14.40;99.90;;;;;;5083603;28;20051;-61
2022/05/10 03:09:08;;;;;;;14.27;8.00;;;14.40;99.90;;;;;;5081233;28;20051;-61
2022/05/10 03:11:35;;;;;;;14.43;8.00;;;14.40;99.90;;;;;;5086391;28;20044;-60
2022/05/10 03:14:01;;;;;;;13.45;7.60;;;14.40;99.90;;;;;;5079910;28;20079;-60
2022/05/10 03:16:27;;;;;;;14.82;8.65;;;14.40;99.90;;;;;;5083855;28;20665;-63
2022/05/10 03:18:53;;;;;;;13.05;7.72;;;14.50;99.90;;;;;;5083491;28;20048;-61
2022/05/10 03:21:19;;;;;;;14.52;8.40;;;14.50;99.90;;;;;;5085250;28;20569;-61
2022/05/10 03:23:45;;;;;;;11.45;8.02;;;14.50;99.90;;;;;;5077582;28;20122;-60
2022/05/10 03:26:15;;;;;;;13.75;7.88;;;14.50;99.90;;;;;;5083514;28;20140;-61
2022/05/10 03:28:41;;;;;;;11.80;7.43;;;14.50;99.90;;;;;;5086351;28;20054;-61
2022/05/10 03:31:07;;;;;;;13.73;8.70;;;14.50;99.90;;;;;;5084429;28;20032;-60
2022/05/10 03:33:33;;;;;;;14.95;8.80;;;14.50;99.90;;;;;;5079337;28;20036;-60
2022/05/10 03:35:59;;;;;;;14.32;8.25;;;14.50;99.90;;;;;;5079492;28;20052;-61
2022/05/10 03:38:24;;;;;;;13.77;8.25;;;14.50;99.90;;;;;;5071221;28;20112;-62
2022/05/10 03:40:50;;;;;;;14.45;8.20;;;14.40;99.90;;;;;;5084026;28;20125;-61
2022/05/10 03:43:15;;;;;;;12.68;8.15;;;14.50;99.90;;;;;;5085382;28;20043;-61
2022/05/10 03:45:41;;;;;;;19.80;8.52;;;14.50;99.90;;;;;;5084049;28;20054;-61
2022/05/10 03:48:07;;;;;;;17.85;8.32;;;14.50;99.90;;;;;;5084048;28;20040;-61
2022/05/10 03:50:33;;;;;;;14.80;8.63;;;14.50;99.90;;;;;;5082860;28;20745;-61
2022/05/10 03:52:59;;;;;;;14.77;8.48;;;14.50;99.90;;;;;;5086715;28;20040;-61
2022/05/10 03:55:28;;;;;;;14.65;8.15;;;14.50;99.90;;;;;;5083583;28;20404;-61
2022/05/10 03:57:54;;;;;;;12.98;7.72;;;14.60;99.90;;;;;;5073403;28;20147;-61
2022/05/10 04:00:23;;;;;;;12.23;8.35;;;14.60;99.90;;;;;;5085230;28;20162;-61
2022/05/10 04:02:49;;;;;;;15.02;9.18;;;14.60;99.90;;;;;;5080594;28;20119;-61
2022/05/10 04:05:17;;;;;;;13.02;8.48;;;14.60;99.90;;;;;;5085367;28;20048;-61
2022/05/10 04:07:43;;;;;;;15.93;8.55;;;14.60;99.90;;;;;;5073817;28;20036;-61
2022/05/10 04:10:11;;;;;;;15.57;8.68;;;14.70;99.90;;;;;;5080027;28;20105;-62
2022/05/10 04:12:37;;;;;;;13.60;8.40;;;14.60;99.90;;;;;;5085027;28;20108;-61
2022/05/10 04:15:04;;;;;;;14.65;9.13;;;14.60;99.90;;;;;;5084512;28;20136;-64
2022/05/10 04:17:30;;;;;;;13.27;8.60;;;14.70;99.90;;;;;;5076788;28;20051;-63
2022/05/10 04:19:55;;;;;;;13.93;8.45;;;14.70;99.90;;;;;;5083260;28;20040;-61
2022/05/10 04:22:21;;;;;;;14.07;8.55;;;14.60;99.90;;;;;;5084627;28;20044;-61
2022/05/10 04:24:47;;;;;;;14.88;8.43;;;14.70;99.90;;;;;;5091436;28;20051;-61
2022/05/10 04:27:12;;;;;;;15.88;8.73;;;14.70;99.90;;;;;;5087675;28;20086;-61
2022/05/10 04:29:38;;;;;;;14.73;8.73;;;14.70;99.90;;;;;;5087301;28;20035;-63
2022/05/10 04:32:04;;;;;;;13.18;8.38;;;14.70;99.90;;;;;;5084751;28;20052;-63
2022/05/10 04:34:29;;;;;;;12.68;8.65;;;14.70;99.90;;;;;;5084699;28;20120;-62
2022/05/10 04:36:55;;;;;;;15.10;8.98;;;14.80;99.90;;;;;;5088116;28;20113;-61
2022/05/10 04:39:20;;;;;;;12.13;9.05;;;14.80;99.90;;;;;;5087063;28;20397;-63
2022/05/10 04:41:50;;;;;;;13.73;9.25;;;14.80;99.90;;;;;;5079649;28;20051;-61
2022/05/10 04:44:16;;;;;;;11.48;8.10;;;14.80;99.90;;;;;;5079845;28;20125;-61
2022/05/10 04:46:42;;;;;;;14.15;9.20;;;14.80;99.90;;;;;;5084003;28;20067;-61
2022/05/10 04:49:10;;;;;;;15.18;9.25;;;14.90;99.90;;;;;;5079741;28;20127;-62
2022/05/10 04:51:37;;;;;;;14.05;8.40;;;14.90;99.90;;;;;;5079389;28;20036;-63
2022/05/10 04:54:03;;;;;;;13.15;9.07;;;14.90;99.90;;;;;;5092711;28;20054;-63
2022/05/10 04:56:28;;;;;;;10.73;8.32;;;14.90;99.90;;;;;;5088065;28;20048;-62
2022/05/10 04:58:57;;;;;;;14.45;9.07;;;15.00;99.90;;;;;;5084245;28;20484;-61
2022/05/10 05:01:26;;;;;;;14.27;9.55;;;15.00;99.90;;;;;;5084145;28;20063;-62
2022/05/10 05:03:55;;;;;;;12.90;8.95;;;15.10;99.90;;;;;;5087643;28;20048;-61
2022/05/10 05:06:23;;;;;;;14.90;9.02;;;15.10;99.90;;;;;;5081571;28;20049;-61
2022/05/10 05:08:49;;;;;;;13.77;9.60;;;15.10;99.90;;;;;;5078169;28;20488;-63
2022/05/10 05:11:14;;;;;;;17.00;8.88;;;15.20;99.90;;;;;;5084958;28;20040;-62
2022/05/10 05:13:40;;;;;;;13.05;9.00;;;15.20;99.90;;;;;;5081083;28;20170;-62
2022/05/10 05:16:06;;;;;;;15.23;9.77;;;15.30;99.90;;;;;;5082870;28;20036;-62
2022/05/10 05:18:32;;;;;;;14.57;9.50;;;15.40;99.90;;;;;;5087656;28;20048;-61
2022/05/10 05:20:58;;;;;;;15.50;9.30;;;15.40;99.90;;;;;;5086731;28;20121;-61
2022/05/10 05:23:24;;;;;;;16.67;9.90;;;15.50;99.90;;;;;;5081083;28;20040;-61
2022/05/10 05:25:49;;;;;;;16.27;10.45;;;15.50;99.90;;;;;;5084825;28;20488;-61
2022/05/10 05:28:15;;;;;;;13.82;9.07;;;15.60;99.90;;;;;;5083932;28;20067;-61
2022/05/10 05:30:43;;;;;;;13.80;9.55;;;15.60;99.90;;;;;;5084175;28;20045;-61
2022/05/10 05:33:09;;;;;;;16.85;9.63;;;15.70;99.90;;;;;;5091089;28;20036;-61
2022/05/10 05:35:36;;;;;;;13.70;9.70;;;15.80;99.90;;;;;;5082485;28;20036;-61
2022/05/10 05:38:01;;;;;;;13.23;8.75;;;15.80;99.90;;;;;;5081225;28;20040;-61
2022/05/10 05:40:27;;;;;;;14.50;9.50;;;15.90;99.90;;;;;;5082590;28;20092;-62
2022/05/10 05:42:54;;;;;;;13.60;9.70;;;16.00;99.90;;;;;;5091179;28;20036;-61
2022/05/10 05:45:22;;;;;;;17.13;10.00;;;16.00;99.90;;;;;;5086266;28;20036;-63
2022/05/10 05:47:48;;;;;;;15.18;9.57;;;16.10;99.90;;;;;;5089389;28;20044;-61
2022/05/10 05:50:16;;;;;;;14.45;9.32;;;16.20;99.90;;;;;;5085500;28;20035;-61
2022/05/10 05:52:42;;;;;;;15.38;9.50;;;16.20;99.90;;;;;;5085168;28;20051;-62
2022/05/10 05:55:10;;;;;;;20.40;9.10;;;16.30;99.90;;;;;;5087264;28;20047;-61
2022/05/10 05:57:36;;;;;;;13.75;9.48;;;16.40;99.90;;;;;;5084274;28;20055;-62
2022/05/10 06:00:06;;;;;;;14.98;9.88;;;16.40;99.90;;;;;;5087862;28;20324;-61
2022/05/10 06:02:32;;;;;;;14.70;10.38;;;16.50;99.90;;;;;;5087666;28;20505;-62
2022/05/10 06:04:58;;;;;;;13.23;9.35;;;16.60;99.90;;;;;;5090607;28;20504;-62
2022/05/10 06:07:23;;;;;;;15.65;10.05;;;16.70;99.90;;;;;;5090345;28;20041;-62
2022/05/10 06:09:49;;;;;;;14.50;10.50;;;16.80;99.90;;;;;;5089581;28;20047;-62
2022/05/10 06:12:17;;;;;;;13.70;9.55;;;16.90;99.90;;;;;;5088856;28;20072;-61
2022/05/10 06:14:43;;;;;;;15.00;9.68;;;17.10;99.90;;;;;;5074477;28;20044;-62
2022/05/10 06:17:10;;;;;;;17.90;10.68;;;17.20;99.90;;;;;;5069287;28;20324;-62
2022/05/10 06:19:38;;;;;;;15.38;10.35;;;17.30;99.90;;;;;;5099673;28;20391;-61
2022/05/10 06:22:05;;;;;;;13.25;9.32;;;17.40;99.90;;;;;;5087252;28;20040;-63
2022/05/10 06:24:30;;;;;;;16.98;10.27;;;17.50;99.90;;;;;;5090409;28;20093;-61
2022/05/10 06:26:56;;;;;;;16.80;10.20;;;17.60;99.90;;;;;;5087258;28;20040;-61
2022/05/10 06:29:22;;;;;;;14.15;9.73;;;17.70;99.60;;;;;;5087569;28;20113;-62
2022/05/10 06:31:47;;;;;;;14.23;9.05;;;17.70;99.60;;;;;;5088147;28;20047;-62
2022/05/10 06:34:14;;;;;;;15.00;9.70;;;17.80;99.60;;;;;;5089168;28;20366;-61
2022/05/10 06:36:40;;;;;;;15.38;9.50;;;17.80;99.60;;;;;;5087894;28;20507;-62
2022/05/10 06:39:06;;;;;;;13.32;9.05;;;17.90;99.80;;;;;;5086488;28;20068;-62
2022/05/10 06:41:32;;;;;;;13.02;9.43;;;18.00;99.80;;;;;;5076776;28;20055;-62
2022/05/10 06:43:58;;;;;;;14.98;9.43;;;18.10;99.70;;;;;;5081194;28;20410;-63
2022/05/10 06:46:24;;;;;;;15.07;9.88;;;18.20;99.60;;;;;;5082405;28;20036;-62
2022/05/10 06:48:50;;;;;;;14.68;9.05;;;18.30;99.40;;;;;;5075706;28;20043;-61
2022/05/10 06:51:18;;;;;;;14.82;9.73;;;18.50;99.20;;;;;;5086616;28;20036;-61
2022/05/10 06:53:44;;;;;;;12.45;8.73;;;18.70;98.80;;;;;;5088939;28;20052;-61
2022/05/10 06:56:10;;;;;;;11.57;8.45;;;19.00;98.20;;;;;;5088392;28;20052;-64
2022/05/10 06:58:37;;;;;;;14.48;8.90;;;19.20;97.30;;;;;;5083157;28;20094;-61
2022/05/10 07:01:04;;;;;;;13.02;8.27;;;19.30;96.50;;;;;;5073849;28;20478;-63
2022/05/10 07:03:32;;;;;;;12.25;8.30;;;19.50;96.10;;;;;;5073817;28;20517;-61
2022/05/10 07:06:00;;;;;;;13.98;7.90;;;19.70;95.60;;;;;;5078643;28;20036;-62
2022/05/10 07:08:26;;;;;;;9.93;7.13;;;19.80;95.00;;;;;;5077384;28;20040;-62
2022/05/10 07:10:52;;;;;;;11.48;7.40;;;19.90;94.60;;;;;;5069111;28;20055;-62
2022/05/10 07:13:21;;;;;;;14.35;7.32;;;20.00;94.30;;;;;;5069345;28;20048;-61
2022/05/10 07:15:47;;;;;;;15.50;8.02;;;20.20;94.20;;;;;;5075662;28;20039;-61
2022/05/10 07:18:13;;;;;;;13.57;7.13;;;20.40;93.50;;;;;;5077362;28;20052;-61
2022/05/10 07:20:39;;;;;;;13.68;7.13;;;20.50;93.00;;;;;;5079757;28;20044;-62
2022/05/10 07:23:05;;;;;;;11.80;6.93;;;20.50;91.90;;;;;;5087140;28;20499;-62
2022/05/10 07:25:31;;;;;;;12.63;7.35;;;20.60;91.30;;;;;;5087670;28;20433;-62
2022/05/10 07:27:57;;;;;;;15.18;7.97;;;20.70;90.90;;;;;;5089516;28;20055;-62
2022/05/10 07:30:25;;;;;;;12.23;7.30;;;20.80;90.10;;;;;;5080675;28;20040;-62
2022/05/10 07:32:51;;;;;;;14.73;7.55;;;20.90;90.20;;;;;;5067892;28;20041;-62
2022/05/10 07:36:23;;;;;;;14.65;7.75;;;20.90;88.90;;;;;;5085217;28;20067;-63
2022/05/10 07:38:05;;;;;;;13.57;8.13;;;21.00;87.90;;;;;;5074995;28;20048;-61
2022/05/10 07:40:31;;;;;;;14.70;8.13;;;21.10;87.90;;;;;;5088709;28;20063;-62
2022/05/10 07:42:56;;;;;;;13.45;8.23;;;21.20;86.50;;;;;;5088846;28;20040;-62
2022/05/10 07:45:22;;;;;;;12.93;7.88;;;21.30;85.40;;;;;;5067047;28;20485;-63
2022/05/10 07:47:47;;;;;;;13.02;8.02;;;21.50;83.90;;;;;;5087455;28;20460;-63
2022/05/10 07:50:13;;;;;;;12.50;8.00;;;21.60;82.70;;;;;;5083967;28;20477;-63
2022/05/10 07:52:40;;;;;;;15.70;8.80;;;21.70;82.40;;;;;;5067773;28;20051;-62
2022/05/10 07:55:07;;;;;;;11.57;8.23;;;21.80;82.50;;;;;;5079946;28;20351;-62
2022/05/10 07:57:33;;;;;;;13.27;8.45;;;21.90;82.00;;;;;;5089231;28;20063;-63
2022/05/10 07:59:58;;;;;;;15.05;8.68;;;21.90;81.20;;;;;;5088106;28;20044;-62
2022/05/10 08:02:24;;;;;;;12.88;8.18;;;21.90;80.90;;;;;;5083239;28;20044;-63
2022/05/10 08:04:49;;;;;;;11.20;8.55;;;21.80;79.90;;;;;;5087656;28;20483;-63
2022/05/10 08:07:15;;;;;;;11.73;8.27;;;21.80;80.80;;;;;;5069691;28;20043;-61
2022/05/10 08:09:41;;;;;;;13.40;7.85;;;21.70;80.70;;;;;;5082646;28;20090;-62
2022/05/10 08:12:06;;;;;;;13.75;8.25;;;21.60;81.80;;;;;;5086421;28;20044;-62
2022/05/10 08:14:32;;;;;;;12.85;8.60;;;21.50;82.80;;;;;;5087277;28;20072;-63
2022/05/10 08:16:57;;;;;;;13.43;8.00;;;21.40;83.90;;;;;;5086690;28;20581;-62
2022/05/10 08:19:23;;;;;;;13.27;8.20;;;21.30;84.00;;;;;;5085947;28;20431;-62
2022/05/10 08:21:49;;;;;;;13.70;8.25;;;21.30;84.70;;;;;;5084507;28;20048;-64
2022/05/10 08:24:14;;;;;;;12.23;8.13;;;21.20;84.80;;;;;;5086679;28;20347;-62
2022/05/10 08:26:40;;;;;;;10.65;7.82;;;21.20;85.70;;;;;;5075634;28;20044;-62
2022/05/10 08:29:05;;;;;;;13.95;8.82;;;21.20;86.00;;;;;;5087217;28;20058;-62
2022/05/10 08:31:31;;;;;;;13.88;8.68;;;21.20;86.80;;;;;;5084044;28;20057;-63
2022/05/10 08:33:57;;;;;;;12.13;8.25;;;21.20;86.80;;;;;;5084894;28;20111;-62
2022/05/10 08:36:23;;;;;;;13.40;8.00;;;21.20;86.60;;;;;;5084746;28;20039;-63
2022/05/10 08:38:48;;;;;;;12.38;7.38;;;21.30;87.00;;;;;;5084930;28;20138;-63
2022/05/10 08:41:22;;;;;;;15.50;8.65;;;21.40;87.10;;;;;;5086208;28;20131;-61
2022/05/10 08:44:00;;;;;;;13.30;7.80;;;21.40;86.80;;;;;;5085749;28;20094;-62
2022/05/10 08:46:32;;;;;;;15.13;7.85;;;21.50;87.50;;;;;;5083593;28;20048;-63
2022/05/10 08:49:08;;;;;;;12.90;7.93;;;21.50;86.30;;;;;;5069415;28;20087;-63
2022/05/10 08:51:34;;;;;;;11.38;8.27;;;21.60;86.70;;;;;;5082424;28;20048;-62
2022/05/10 08:53:59;;;;;;;10.95;7.53;;;21.60;86.70;;;;;;5086483;28;20362;-63
2022/05/10 08:56:41;;;;;;;12.73;8.40;;;21.70;86.80;;;;;;5085132;28;20044;-62
2022/05/10 08:59:14;;;;;;;13.10;8.25;;;21.70;86.50;;;;;;5085600;28;20043;-62
2022/05/10 09:02:12;;;;;;;13.52;8.73;;;21.80;86.30;;;;;;5087828;28;20072;-62
2022/05/10 09:05:00;;;;;;;13.23;9.50;;;21.80;84.70;;;;;;5089011;28;20521;-61
2022/05/10 09:07:57;;;;;;;17.40;8.77;;;21.90;85.60;;;;;;5089435;28;20553;-62
2022/05/10 09:10:49;;;;;;;14.52;9.32;;;22.00;86.00;;;;;;5089379;28;20567;-63
2022/05/10 09:13:17;;;;;;;12.10;8.45;;;21.90;85.50;;;;;;5089573;28;20052;-63
2022/05/10 09:15:59;;;;;;;14.18;9.63;;;22.00;85.40;;;;;;5090298;28;20398;-62
2022/05/10 09:18:29;;;;;;;14.70;9.57;;;22.10;85.80;;;;;;5079343;28;20112;-63
2022/05/10 09:21:24;;;;;;;16.83;9.75;;;22.20;84.90;;;;;;5084153;28;20040;-63
2022/05/10 09:24:19;;;;;;;12.63;8.65;;;22.40;84.90;;;;;;5088688;28;20097;-62
2022/05/10 09:26:48;;;;;;;15.30;9.45;;;22.60;83.70;;;;;;5084915;28;20076;-63
2022/05/10 09:29:42;;;;;;;14.80;9.75;;;22.70;83.30;;;;;;5069870;28;20041;-62
2022/05/10 09:35:14;;;;;;;15.32;9.02;;;23.10;82.50;;;;;;5086194;28;20127;-63
2022/05/10 09:37:51;;;;;;;16.13;9.52;;;23.40;82.10;;;;;;5088560;28;20368;-62
2022/05/10 09:40:35;;;;;;;14.75;9.43;;;23.50;80.60;;;;;;5086788;28;20047;-63
2022/05/10 09:43:22;;;;;;;13.85;9.88;;;23.70;79.50;;;;;;5089381;28;20075;-62
2022/05/10 09:46:11;;;;;;;13.10;9.10;;;23.70;79.60;;;;;;5090355;28;20068;-62
2022/05/10 09:48:39;;;;;;;12.40;8.70;;;23.70;77.00;;;;;;5090119;28;20040;-63
2022/05/10 09:51:29;;;;;;;13.18;9.25;;;23.70;77.90;;;;;;5087788;28;20068;-62
2022/05/10 09:53:56;;;;;;;13.68;9.30;;;23.80;78.50;;;;;;5089826;28;20402;-63
2022/05/10 09:56:39;;;;;;;11.20;9.15;;;23.80;77.20;;;;;;5089727;28;20052;-62
2022/05/10 09:59:24;;;;;;;12.85;9.45;;;23.90;76.50;;;;;;5069914;28;20036;-62
2022/05/10 10:01:56;;;;;;;13.18;8.77;;;23.90;75.70;;;;;;5081781;28;20144;-62
2022/05/10 10:04:28;;;;;;;11.70;9.23;;;23.80;75.60;;;;;;5089997;28;20048;-62
2022/05/10 10:07:20;;;;;;;12.68;8.90;;;23.90;76.30;;;;;;5104185;28;20090;-63
2022/05/10 10:10:13;;;;;;;10.63;8.63;;;23.80;75.90;;;;;;5088527;28;20501;-63
2022/05/10 10:12:41;;;;;;;11.85;9.15;;;23.80;76.30;;;;;;5070155;28;20498;-62
2022/05/10 10:15:25;;;;;;;12.50;8.73;;;23.80;77.10;;;;;;5070696;28;20040;-63
2022/05/10 10:17:57;;;;;;;12.48;8.25;;;23.80;78.60;;;;;;5077695;28;20432;-63
2022/05/10 10:20:31;;;;;;;13.98;8.50;;;23.90;78.20;;;;;;5068579;28;20745;-63
2022/05/10 10:23:00;;;;;;;11.70;8.75;;;24.10;78.50;;;;;;5069618;28;20043;-63
2022/05/10 10:25:32;;;;;;;11.95;7.90;;;24.20;76.10;;;;;;5083189;28;20489;-62
2022/05/10 10:28:20;;;;;;;10.00;8.02;;;24.30;75.90;;;;;;5089177;28;20047;-62
2022/05/10 10:31:04;;;;;;;10.57;8.10;;;24.50;76.60;;;;;;5089139;28;20131;-63
2022/05/10 10:33:43;;;;;;;13.02;8.15;;;24.50;75.30;;;;;;5088747;28;20051;-63
2022/05/10 10:36:08;;;;;;;11.98;8.05;;;24.40;74.50;;;;;;5085848;28;20529;-63
2022/05/10 10:38:52;;;;;;;11.70;7.90;;;24.40;73.90;;;;;;5089145;28;20083;-62
2022/05/10 10:41:46;;;;;;;9.07;7.70;;;24.40;73.80;;;;;;5079971;28;20437;-63
2022/05/10 10:44:26;;;;;;;9.70;5.88;;;24.40;75.20;;;;;;5071119;28;20494;-63
2022/05/10 10:47:00;;;;;;;9.38;5.20;;;24.40;72.80;;;;;;5076039;28;20049;-62
2022/05/10 10:49:35;;;;;;;14.32;5.03;;;24.50;68.50;;;;;;5069122;28;20086;-62
2022/05/10 10:52:00;;;;;;;;;;;24.40;66.50;;;;;;5071427;28;20079;-62
2022/05/10 10:54:29;;;;;;;13.80;5.25;;;24.40;66.30;;;;;;5073481;28;19932;-63
2022/05/10 10:57:04;;;;;;;10.60;5.25;;;24.50;65.60;;;;;;5087602;28;20237;-61
2022/05/10 10:59:38;;;;;;;8.68;5.63;;;24.50;64.00;;;;;;5069647;28;20052;-63
2022/05/10 11:02:38;;;;;;;10.77;5.28;;;24.40;63.50;;;;;;5068018;28;20067;-63
2022/05/10 11:05:21;;;;;;;10.20;5.20;;;24.30;63.20;;;;;;5079442;28;20067;-63
2022/05/10 11:08:01;;;;;;;11.73;5.38;;;24.30;62.90;;;;;;5086057;28;20414;-62
2022/05/10 11:10:46;;;;;;;13.32;5.10;;;24.30;63.70;;;;;;5088746;28;20056;-62
2022/05/10 11:13:20;;;;;;;12.80;5.80;;;24.50;63.50;;;;;;5088803;28;20056;-63
2022/05/10 11:16:11;;;;;;;10.25;5.03;;;24.50;62.80;;;;;;5079091;28;20048;-62
2022/05/10 11:19:15;;;;;;;11.15;5.18;;;24.70;61.60;;;;;;5087406;28;20513;-63
2022/05/10 11:22:11;;;;;;;8.93;4.40;;;24.70;61.60;;;;;;5087376;28;20044;-63
2022/05/10 11:24:58;;;;;;;10.25;4.97;;;24.80;62.20;;;;;;5085953;28;20055;-63
2022/05/10 11:27:55;;;;;;;10.20;4.78;;;24.90;61.90;;;;;;5086814;28;20533;-62
2022/05/10 11:30:45;;;;;;;8.73;4.60;;;24.90;62.00;;;;;;5087542;28;20695;-60
2022/05/10 11:33:22;;;;;;;9.32;4.60;;;25.10;62.40;;;;;;5085577;28;20052;-61
2022/05/10 11:36:07;;;;;;;9.70;4.78;;;25.10;62.70;;;;;;5079166;28;20078;-61
2022/05/10 11:38:42;;;;;;;;;;;25.20;62.50;;;;;;5088105;28;20098;-63
2022/05/10 11:41:32;;;;;;;8.20;4.93;;;25.30;62.30;;;;;;5087033;28;19920;-62
2022/05/10 11:44:15;;;;;;;9.88;5.00;;;25.30;61.20;;;;;;5086156;28;20076;-61
2022/05/10 11:47:11;;;;;;;10.45;4.75;;;25.20;61.50;;;;;;5086571;28;20047;-61
2022/05/10 11:50:02;;;;;;;9.25;4.72;;;25.10;61.80;;;;;;5087126;28;20066;-62
2022/05/10 11:52:44;;;;;;;9.77;4.35;;;25.30;62.40;;;;;;5073272;28;20130;-62
2022/05/10 11:55:36;;;;;;;9.73;4.38;;;25.40;60.50;;;;;;5086086;28;20102;-61
2022/05/10 11:58:07;;;;;;;10.35;4.53;;;25.30;60.90;;;;;;5087697;28;20477;-63
2022/05/10 12:00:32;;;;;;;8.43;4.38;;;25.40;59.50;;;;;;5087834;28;20122;-62
2022/05/10 12:02:59;;;;;;;10.00;4.53;;;25.30;60.10;;;;;;5086479;28;20146;-63
2022/05/10 12:05:33;;;;;;;8.73;4.65;;;25.30;59.40;;;;;;5087192;28;20067;-61
2022/05/10 12:08:03;;;;;;;9.15;4.10;;;25.40;59.10;;;;;;5087480;28;20056;-62
2022/05/10 12:10:47;;;;;;;9.00;4.65;;;25.40;59.60;;;;;;5085615;28;20142;-63
2022/05/10 12:21:19;;;;;;;9.20;4.30;;;25.10;59.40;;;;;;5083951;28;20101;-63
2022/05/10 12:22:10;;;;;;;6.78;3.42;;;25.50;59.40;;;;;;5086540;28;20047;-62
2022/05/10 12:24:44;;;;;;;9.05;3.95;;;25.40;58.30;;;;;;5085821;28;20052;-62
2022/05/10 12:27:10;;;;;;;7.40;3.78;;;25.40;58.00;;;;;;5086627;28;20134;-61
2022/05/10 12:29:38;;;;;;;8.50;3.80;;;25.40;57.70;;;;;;5089946;28;20158;-62
2022/05/10 12:32:40;;;;;;;7.25;3.78;;;25.40;58.40;;;;;;5086768;28;20036;-63
2022/05/10 12:35:21;;;;;;;7.03;4.10;;;25.10;57.70;;;;;;5085379;28;20087;-62
2022/05/10 12:37:52;;;;;;;9.68;3.90;;;25.20;58.00;;;;;;5090604;28;20040;-62
2022/05/10 12:40:31;;;;;;;8.13;3.67;;;25.20;58.40;;;;;;5088312;28;20087;-62
2022/05/10 12:43:37;;;;;;;8.15;3.72;;;25.30;59.20;;;;;;5091630;28;20051;-61
2022/05/10 12:46:32;;;;;;;6.88;3.50;;;25.40;58.80;;;;;;5091418;28;20044;-63
2022/05/10 12:49:17;;;;;;;13.45;3.70;;;25.30;59.00;;;;;;5091789;28;20421;-63
2022/05/10 12:52:13;;;;;;;9.55;3.20;;;25.50;58.70;;;;;;5070121;28;20120;-61
2022/05/10 12:54:45;;;;;;;11.13;3.53;;;25.50;57.90;;;;;;5070237;28;20080;-62
2022/05/10 12:57:37;;;;;;;9.98;3.70;;;25.50;58.30;;;;;;5071643;28;20359;-61
2022/05/10 13:00:12;;;;;;;10.00;3.20;;;25.60;57.70;;;;;;5075640;28;20386;-63
2022/05/10 13:02:41;;;;;;;8.25;3.55;;;25.40;57.40;;;;;;5088943;28;20044;-61
2022/05/10 13:05:14;;;;;;;6.95;3.50;;;25.20;57.50;;;;;;5091266;28;20050;-61
2022/05/10 13:08:10;;;;;;;8.10;3.72;;;25.10;57.80;;;;;;5088497;28;20119;-61
2022/05/10 13:10:36;;;;;;;7.53;3.42;;;24.90;57.90;;;;;;5085440;28;20390;-61
2022/05/10 13:13:16;;;;;;;10.60;3.42;;;24.70;58.40;;;;;;5078328;28;20044;-61
2022/05/10 13:15:44;;;;;;;6.47;3.70;;;24.60;58.80;;;;;;5089640;28;20044;-61